| time (UTC) | temp C | wind direction | speed KPH | gust KPH | rain 1hr cm | rain 24hr cm | rain mn cm | humidity % | barometer mb |
| 20260509064548 | 18 | 161 | 1.6 | 9.7 | 0.00 | 0.00 | 0.00 | 67 | 1022.6 |
| 20260509063026 | 18 | 125 | 3.2 | 9.7 | 0.00 | 0.00 | 0.00 | 66 | 1022.5 |
| 20260509061512 | 19 | 122 | 3.2 | 8.0 | 0.00 | 0.00 | 0.00 | 64 | 1022.4 |
| 20260509060038 | 20 | 172 | 4.8 | 11.3 | 0.00 | 0.00 | 0.00 | 64 | 1022.1 |
| 20260509054521 | 20 | 186 | 4.8 | 11.3 | 0.00 | 0.00 | 0.00 | 63 | 1022.1 |
| 20260509053104 | 20 | 120 | 6.4 | 14.5 | 0.00 | 0.00 | 0.00 | 61 | 1022.0 |
| 20260509051540 | 20 | 113 | 4.8 | 12.9 | 0.00 | 0.00 | 0.00 | 61 | 1021.9 |
| 20260509050006 | 20 | 173 | 6.4 | 14.5 | 0.00 | 0.00 | 0.00 | 59 | 1021.8 |
| 20260509044544 | 20 | 150 | 6.4 | 11.3 | 0.00 | 0.00 | 0.00 | 60 | 1021.8 |
| 20260509043018 | 20 | 160 | 9.7 | 14.5 | 0.00 | 0.00 | 0.00 | 59 | 1021.9 |
| 20260509041558 | 21 | 153 | 6.4 | 12.9 | 0.00 | 0.00 | 0.00 | 60 | 1021.8 |
| 20260509041502 | 21 | 137 | 6.4 | 12.9 | 0.00 | 0.00 | 0.00 | 60 | 1021.8 |
| 20260509040024 | 21 | 163 | 6.4 | 12.9 | 0.00 | 0.00 | 0.00 | 59 | 1021.8 |
| 20260509034506 | 21 | 166 | 4.8 | 12.9 | 0.00 | 0.00 | 0.00 | 59 | 1021.8 |
| 20260509033050 | 21 | 138 | 4.8 | 14.5 | 0.00 | 0.00 | 0.00 | 59 | 1021.9 |
| 20260509031534 | 21 | 155 | 4.8 | 16.1 | 0.00 | 0.00 | 0.00 | 59 | 1022.0 |
| 20260509030055 | 21 | 171 | 3.2 | 11.3 | 0.00 | 0.00 | 0.00 | 57 | 1022.2 |
| 20260509024538 | 21 | 119 | 4.8 | 12.9 | 0.00 | 0.00 | 0.00 | 56 | 1022.4 |
| 20260509023022 | 21 | 153 | 4.8 | 11.3 | 0.00 | 0.00 | 0.00 | 53 | 1022.6 |
| 20260509021511 | 21 | 103 | 3.2 | 12.9 | 0.00 | 0.00 | 0.00 | 53 | 1022.7 |
| 20260509020029 | 21 | 102 | 1.6 | 8.0 | 0.00 | 0.00 | 0.00 | 54 | 1023.0 |
| 20260509014504 | 21 | 125 | 3.2 | 11.3 | 0.00 | 0.00 | 0.00 | 52 | 1023.0 |
| 20260509013106 | 22 | 126 | 1.6 | 6.4 | 0.00 | 0.00 | 0.00 | 52 | 1023.2 |
| 20260509011522 | 21 | 148 | 3.2 | 8.0 | 0.00 | 0.00 | 0.00 | 52 | 1023.3 |
| 20260509010036 | 21 | 316 | 3.2 | 8.0 | 0.00 | 0.00 | 0.00 | 55 | 1023.4 |
| 20260509004516 | 21 | 294 | 1.6 | 8.0 | 0.00 | 0.00 | 0.00 | 55 | 1023.5 |
| 20260509003058 | 20 | 283 | 1.6 | 8.0 | 0.00 | 0.00 | 0.00 | 57 | 1023.5 |
| 20260509001532 | 20 | 309 | 3.2 | 6.4 | 0.00 | 0.00 | 0.00 | 57 | 1023.6 |
| 20260509000054 | 20 | 9 | 1.6 | 6.4 | 0.00 | 0.00 | 0.00 | 59 | 1023.7 |
| 20260508234531 | 18 | 268 | 0.0 | 4.8 | 0.00 | 0.00 | 0.00 | 61 | 1023.5 |
| 20260508233011 | 17 | 267 | 1.6 | 12.9 | 0.00 | 0.00 | 0.00 | 64 | 1023.6 |
| 20260508231551 | 17 | 293 | 3.2 | 9.7 | 0.00 | 0.00 | 0.00 | 65 | 1023.5 |
| 20260508224557 | 16 | 266 | 1.6 | 6.4 | 0.00 | 0.00 | 0.00 | 68 | 1023.4 |
| 20260508223030 | 15 | 263 | 1.6 | 8.0 | 0.00 | 0.00 | 0.00 | 69 | 1023.4 |
| 20260508221606 | 15 | 278 | 1.6 | 9.7 | 0.00 | 0.00 | 0.00 | 69 | 1023.2 |
| 20260508221502 | 15 | 203 | 1.6 | 9.7 | 0.00 | 0.00 | 0.00 | 69 | 1023.2 |
| 20260508220020 | 15 | 291 | 0.0 | 6.4 | 0.00 | 0.00 | 0.00 | 69 | 1023.1 |
| 20260508214600 | 15 | 207 | 1.6 | 9.7 | 0.00 | 0.00 | 0.00 | 70 | 1023.1 |
| 20260508214502 | 15 | 185 | 3.2 | 11.3 | 0.00 | 0.00 | 0.00 | 70 | 1023.1 |
| 20260508213039 | 14 | 235 | 1.6 | 9.7 | 0.00 | 0.00 | 0.00 | 70 | 1023.0 |
| 20260508211517 | 13 | 279 | 1.6 | 6.4 | 0.00 | 0.00 | 0.00 | 73 | 1022.7 |
| 20260508210035 | 12 | 27 | 0.0 | 4.8 | 0.00 | 0.00 | 0.00 | 75 | 1022.7 |
| 20260508204521 | 12 | 355 | 1.6 | 8.0 | 0.00 | 0.00 | 0.00 | 75 | 1022.5 |
| 20260508203108 | 12 | 37 | 1.6 | 4.8 | 0.00 | 0.00 | 0.00 | 75 | 1022.2 |
| 20260508121533 | 14 | 279 | 0.0 | 8.0 | 0.00 | 0.00 | 0.00 | 69 | 1020.2 |
| 20260508120057 | 14 | 244 | 0.0 | 6.4 | 0.00 | 0.00 | 0.00 | 68 | 1020.2 |
| 20260508114535 | 14 | 163 | 1.6 | 9.7 | 0.00 | 0.00 | 0.00 | 68 | 1020.2 |
| 20260508113017 | 14 | 242 | 4.8 | 12.9 | 0.00 | 0.00 | 0.00 | 67 | 1020.2 |
| 20260508111601 | 15 | 167 | 3.2 | 14.5 | 0.00 | 0.00 | 0.00 | 66 | 1020.0 |
| 20260508111502 | 15 | 204 | 3.2 | 14.5 | 0.00 | 0.00 | 0.00 | 66 | 1020.0 |
| 20260508110018 | 15 | 316 | 4.8 | 12.9 | 0.00 | 0.00 | 0.00 | 66 | 1019.7 |
| 20260508104558 | 15 | 267 | 1.6 | 11.3 | 0.00 | 0.00 | 0.00 | 65 | 1019.8 |
| 20260508103036 | 15 | 202 | 3.2 | 11.3 | 0.00 | 0.00 | 0.00 | 65 | 1019.5 |
| 20260508101524 | 15 | 157 | 1.6 | 11.3 | 0.00 | 0.00 | 0.00 | 64 | 1019.5 |
| 20260508100043 | 15 | 341 | 1.6 | 9.7 | 0.00 | 0.00 | 0.00 | 63 | 1019.4 |
| 20260508094525 | 16 | 267 | 1.6 | 8.0 | 0.00 | 0.00 | 0.00 | 62 | 1019.0 |
| 20260508093007 | 16 | 201 | 4.8 | 16.1 | 0.00 | 0.00 | 0.00 | 61 | 1018.8 |
| 20260508091609 | 16 | 269 | 6.4 | 16.1 | 0.00 | 0.00 | 0.00 | 60 | 1018.7 |
| 20260508090013 | 16 | 212 | 3.2 | 19.3 | 0.00 | 0.00 | 0.00 | 59 | 1018.5 |
| 20260508084548 | 16 | 326 | 4.8 | 16.1 | 0.00 | 0.00 | 0.00 | 59 | 1018.2 |
| 20260508083037 | 16 | 248 | 3.2 | 9.7 | 0.00 | 0.00 | 0.00 | 57 | 1018.3 |
| 20260508081515 | 17 | 229 | 3.2 | 12.9 | 0.00 | 0.00 | 0.00 | 56 | 1018.0 |
| 20260508080041 | 17 | 227 | 3.2 | 9.7 | 0.00 | 0.00 | 0.00 | 55 | 1017.8 |
| 20260508074522 | 17 | 217 | 6.4 | 17.7 | 0.00 | 0.00 | 0.00 | 54 | 1017.3 |
| 20260508073058 | 17 | 229 | 1.6 | 9.7 | 0.00 | 0.00 | 0.00 | 54 | 1017.1 |
| 20260508071541 | 17 | 244 | 3.2 | 16.1 | 0.00 | 0.00 | 0.00 | 53 | 1016.7 |
| 20260508070006 | 18 | 219 | 0.0 | 4.8 | 0.00 | 0.00 | 0.00 | 52 | 1016.4 |